Big Spring, Illinois
Current Conditions -  °F | °C
As of 5:53 AM on Monday 22 Dec 2014 (Local Time) from KMTO Reporting Station
Overcast Overcast  
Wind Chill: 25°   Ceiling: 6000
Heat Index: 34°   Visibility: 9mi
Dew Point: 28°   Wind: 12mph
Humidity: 79%   Direction: 130°SE
Pressure: 29.88"   Gusts: NA
Location:  39.3144°N, 88.4504°W
Report Text: KMTO 221153Z AUTO 13010KT 9SM OVC060 01/M02 A2988 RMK AO2 SLP124 T00111022 10011 21006 56020
Loading
Personal Weather Stations






























Interactive Weather Map New forecast layout! Learn more

10-Day Weather Forecast

Advertisements
Track Severe Weather on mobile